sensor_id;sensor_type;location;lat;lon;timestamp;P1;durP1;ratioP1;P2;durP2;ratioP2
86011;SDS011;76591;42.170;27.850;2024-03-02T00:00:07;11.88;;;4.43;;
86011;SDS011;76591;42.170;27.850;2024-03-02T00:02:44;11.30;;;4.32;;
86011;SDS011;76591;42.170;27.850;2024-03-02T00:05:15;11.23;;;3.08;;
86011;SDS011;76591;42.170;27.850;2024-03-02T00:07:46;14.13;;;3.63;;
86011;SDS011;76591;42.170;27.850;2024-03-02T00:10:19;12.18;;;3.92;;
86011;SDS011;76591;42.170;27.850;2024-03-02T00:12:48;13.70;;;4.80;;
86011;SDS011;76591;42.170;27.850;2024-03-02T00:15:27;14.65;;;4.45;;
86011;SDS011;76591;42.170;27.850;2024-03-02T00:18:19;11.80;;;4.65;;
86011;SDS011;76591;42.170;27.850;2024-03-02T00:21:05;9.70;;;4.55;;
86011;SDS011;76591;42.170;27.850;2024-03-02T00:23:34;9.48;;;4.28;;
86011;SDS011;76591;42.170;27.850;2024-03-02T00:26:00;13.18;;;4.95;;
86011;SDS011;76591;42.170;27.850;2024-03-02T00:28:33;11.15;;;4.88;;
86011;SDS011;76591;42.170;27.850;2024-03-02T00:31:06;14.55;;;5.13;;
86011;SDS011;76591;42.170;27.850;2024-03-02T00:33:33;10.05;;;4.75;;
86011;SDS011;76591;42.170;27.850;2024-03-02T00:36:02;11.13;;;4.72;;
86011;SDS011;76591;42.170;27.850;2024-03-02T00:38:33;11.00;;;5.10;;
86011;SDS011;76591;42.170;27.850;2024-03-02T00:41:08;14.60;;;4.72;;
86011;SDS011;76591;42.170;27.850;2024-03-02T00:43:47;14.15;;;4.28;;
86011;SDS011;76591;42.170;27.850;2024-03-02T00:46:20;11.20;;;3.92;;
86011;SDS011;76591;42.170;27.850;2024-03-02T00:48:59;13.52;;;4.55;;
86011;SDS011;76591;42.170;27.850;2024-03-02T00:51:27;9.68;;;3.70;;
86011;SDS011;76591;42.170;27.850;2024-03-02T00:53:55;9.25;;;4.50;;
86011;SDS011;76591;42.170;27.850;2024-03-02T00:56:24;15.38;;;4.70;;
86011;SDS011;76591;42.170;27.850;2024-03-02T00:58:51;8.75;;;3.65;;
86011;SDS011;76591;42.170;27.850;2024-03-02T01:01:17;13.73;;;4.40;;
86011;SDS011;76591;42.170;27.850;2024-03-02T01:03:45;13.15;;;5.15;;
86011;SDS011;76591;42.170;27.850;2024-03-02T01:06:11;10.07;;;4.20;;
86011;SDS011;76591;42.170;27.850;2024-03-02T01:08:36;16.13;;;4.20;;
86011;SDS011;76591;42.170;27.850;2024-03-02T01:11:03;16.15;;;5.75;;
86011;SDS011;76591;42.170;27.850;2024-03-02T01:13:30;15.80;;;5.28;;
86011;SDS011;76591;42.170;27.850;2024-03-02T01:15:56;10.25;;;5.55;;
86011;SDS011;76591;42.170;27.850;2024-03-02T01:18:21;11.77;;;5.90;;
86011;SDS011;76591;42.170;27.850;2024-03-02T01:20:47;24.38;;;7.35;;
86011;SDS011;76591;42.170;27.850;2024-03-02T01:23:13;9.80;;;4.05;;
86011;SDS011;76591;42.170;27.850;2024-03-02T01:25:39;12.90;;;5.25;;
86011;SDS011;76591;42.170;27.850;2024-03-02T01:28:05;15.75;;;5.65;;
86011;SDS011;76591;42.170;27.850;2024-03-02T01:30:31;9.25;;;4.70;;
86011;SDS011;76591;42.170;27.850;2024-03-02T01:32:56;10.68;;;5.15;;
86011;SDS011;76591;42.170;27.850;2024-03-02T01:35:24;16.17;;;6.35;;
86011;SDS011;76591;42.170;27.850;2024-03-02T01:37:50;18.77;;;7.22;;
86011;SDS011;76591;42.170;27.850;2024-03-02T01:40:16;10.77;;;4.82;;
86011;SDS011;76591;42.170;27.850;2024-03-02T01:42:41;13.73;;;4.65;;
86011;SDS011;76591;42.170;27.850;2024-03-02T01:45:08;15.35;;;4.85;;
86011;SDS011;76591;42.170;27.850;2024-03-02T01:47:34;15.80;;;5.43;;
86011;SDS011;76591;42.170;27.850;2024-03-02T01:50:00;16.75;;;5.60;;
86011;SDS011;76591;42.170;27.850;2024-03-02T01:52:26;10.15;;;4.57;;
86011;SDS011;76591;42.170;27.850;2024-03-02T01:54:52;16.75;;;4.63;;
86011;SDS011;76591;42.170;27.850;2024-03-02T01:57:18;11.63;;;4.55;;
86011;SDS011;76591;42.170;27.850;2024-03-02T01:59:44;13.05;;;3.85;;
86011;SDS011;76591;42.170;27.850;2024-03-02T02:02:13;12.40;;;3.92;;
86011;SDS011;76591;42.170;27.850;2024-03-02T02:04:39;11.88;;;4.05;;
86011;SDS011;76591;42.170;27.850;2024-03-02T02:07:05;13.90;;;3.95;;
86011;SDS011;76591;42.170;27.850;2024-03-02T02:09:31;9.68;;;4.40;;
86011;SDS011;76591;42.170;27.850;2024-03-02T02:11:57;13.60;;;4.63;;
86011;SDS011;76591;42.170;27.850;2024-03-02T02:14:23;10.27;;;3.63;;
86011;SDS011;76591;42.170;27.850;2024-03-02T02:16:48;17.95;;;4.28;;
86011;SDS011;76591;42.170;27.850;2024-03-02T02:19:14;9.05;;;3.80;;
86011;SDS011;76591;42.170;27.850;2024-03-02T02:21:43;11.75;;;3.90;;
86011;SDS011;76591;42.170;27.850;2024-03-02T02:24:09;12.52;;;3.78;;
86011;SDS011;76591;42.170;27.850;2024-03-02T02:26:35;14.93;;;4.40;;
86011;SDS011;76591;42.170;27.850;2024-03-02T02:29:01;11.38;;;5.20;;
86011;SDS011;76591;42.170;27.850;2024-03-02T02:31:27;12.05;;;4.75;;
86011;SDS011;76591;42.170;27.850;2024-03-02T02:34:01;9.77;;;4.45;;
86011;SDS011;76591;42.170;27.850;2024-03-02T02:36:26;14.98;;;5.88;;
86011;SDS011;76591;42.170;27.850;2024-03-02T02:38:52;8.75;;;4.38;;
86011;SDS011;76591;42.170;27.850;2024-03-02T02:41:18;10.65;;;4.50;;
86011;SDS011;76591;42.170;27.850;2024-03-02T02:43:43;9.90;;;4.47;;
86011;SDS011;76591;42.170;27.850;2024-03-02T02:46:09;11.93;;;4.32;;
86011;SDS011;76591;42.170;27.850;2024-03-02T02:48:35;17.08;;;4.47;;
86011;SDS011;76591;42.170;27.850;2024-03-02T02:51:01;13.35;;;5.28;;
86011;SDS011;76591;42.170;27.850;2024-03-02T02:53:27;18.77;;;5.25;;
86011;SDS011;76591;42.170;27.850;2024-03-02T02:55:52;14.50;;;4.97;;
86011;SDS011;76591;42.170;27.850;2024-03-02T02:58:18;11.07;;;4.45;;
86011;SDS011;76591;42.170;27.850;2024-03-02T03:00:44;22.17;;;5.38;;
86011;SDS011;76591;42.170;27.850;2024-03-02T03:03:09;17.63;;;4.45;;
86011;SDS011;76591;42.170;27.850;2024-03-02T03:05:35;14.05;;;5.32;;
86011;SDS011;76591;42.170;27.850;2024-03-02T03:08:01;12.85;;;4.75;;
86011;SDS011;76591;42.170;27.850;2024-03-02T03:10:26;11.10;;;4.15;;
86011;SDS011;76591;42.170;27.850;2024-03-02T03:12:53;9.65;;;3.58;;
86011;SDS011;76591;42.170;27.850;2024-03-02T03:15:21;19.30;;;4.03;;
86011;SDS011;76591;42.170;27.850;2024-03-02T03:17:46;14.55;;;4.57;;
86011;SDS011;76591;42.170;27.850;2024-03-02T03:20:12;9.45;;;4.13;;
86011;SDS011;76591;42.170;27.850;2024-03-02T03:22:39;10.43;;;4.22;;
86011;SDS011;76591;42.170;27.850;2024-03-02T03:25:05;10.75;;;3.55;;
86011;SDS011;76591;42.170;27.850;2024-03-02T03:27:31;18.52;;;5.00;;
86011;SDS011;76591;42.170;27.850;2024-03-02T03:29:57;11.10;;;4.85;;
86011;SDS011;76591;42.170;27.850;2024-03-02T03:32:22;17.75;;;4.25;;
86011;SDS011;76591;42.170;27.850;2024-03-02T03:34:48;10.77;;;3.60;;
86011;SDS011;76591;42.170;27.850;2024-03-02T03:37:14;9.88;;;4.30;;
86011;SDS011;76591;42.170;27.850;2024-03-02T03:39:40;12.18;;;4.88;;
86011;SDS011;76591;42.170;27.850;2024-03-02T03:42:06;12.57;;;4.88;;
86011;SDS011;76591;42.170;27.850;2024-03-02T03:44:31;19.27;;;5.32;;
86011;SDS011;76591;42.170;27.850;2024-03-02T03:46:57;15.93;;;5.75;;
86011;SDS011;76591;42.170;27.850;2024-03-02T03:49:23;13.73;;;4.90;;
86011;SDS011;76591;42.170;27.850;2024-03-02T03:51:48;14.27;;;4.57;;
86011;SDS011;76591;42.170;27.850;2024-03-02T03:54:14;12.73;;;4.72;;
86011;SDS011;76591;42.170;27.850;2024-03-02T03:56:40;11.32;;;4.07;;
86011;SDS011;76591;42.170;27.850;2024-03-02T03:59:05;12.77;;;4.88;;
86011;SDS011;76591;42.170;27.850;2024-03-02T04:01:31;11.65;;;4.10;;
86011;SDS011;76591;42.170;27.850;2024-03-02T04:03:57;16.25;;;4.25;;
86011;SDS011;76591;42.170;27.850;2024-03-02T04:06:23;13.77;;;4.47;;
86011;SDS011;76591;42.170;27.850;2024-03-02T04:08:49;13.10;;;4.90;;
86011;SDS011;76591;42.170;27.850;2024-03-02T04:11:14;12.13;;;4.97;;
86011;SDS011;76591;42.170;27.850;2024-03-02T04:13:40;33.30;;;9.13;;
86011;SDS011;76591;42.170;27.850;2024-03-02T04:16:06;22.95;;;8.63;;
86011;SDS011;76591;42.170;27.850;2024-03-02T04:18:31;20.70;;;7.57;;
86011;SDS011;76591;42.170;27.850;2024-03-02T04:20:57;16.02;;;6.55;;
86011;SDS011;76591;42.170;27.850;2024-03-02T04:23:26;18.60;;;6.35;;
86011;SDS011;76591;42.170;27.850;2024-03-02T04:25:52;21.70;;;6.80;;
86011;SDS011;76591;42.170;27.850;2024-03-02T04:28:18;18.58;;;7.32;;
86011;SDS011;76591;42.170;27.850;2024-03-02T04:30:44;17.60;;;6.68;;
86011;SDS011;76591;42.170;27.850;2024-03-02T04:33:09;19.55;;;6.72;;
86011;SDS011;76591;42.170;27.850;2024-03-02T04:35:35;12.05;;;6.25;;
86011;SDS011;76591;42.170;27.850;2024-03-02T04:38:01;19.48;;;7.00;;
86011;SDS011;76591;42.170;27.850;2024-03-02T04:40:27;17.58;;;6.88;;
86011;SDS011;76591;42.170;27.850;2024-03-02T04:42:53;18.05;;;6.45;;
86011;SDS011;76591;42.170;27.850;2024-03-02T04:45:19;19.50;;;7.30;;
86011;SDS011;76591;42.170;27.850;2024-03-02T04:47:45;16.42;;;5.75;;
86011;SDS011;76591;42.170;27.850;2024-03-02T04:50:10;6.13;;;3.85;;
86011;SDS011;76591;42.170;27.850;2024-03-02T04:52:36;10.10;;;4.03;;
86011;SDS011;76591;42.170;27.850;2024-03-02T04:55:02;13.55;;;3.65;;
86011;SDS011;76591;42.170;27.850;2024-03-02T04:57:47;22.02;;;5.53;;
86011;SDS011;76591;42.170;27.850;2024-03-02T05:00:13;15.50;;;6.50;;
86011;SDS011;76591;42.170;27.850;2024-03-02T05:02:39;21.25;;;6.78;;
86011;SDS011;76591;42.170;27.850;2024-03-02T05:05:04;15.20;;;5.97;;
86011;SDS011;76591;42.170;27.850;2024-03-02T05:07:30;18.15;;;6.57;;
86011;SDS011;76591;42.170;27.850;2024-03-02T05:09:55;20.77;;;8.52;;
86011;SDS011;76591;42.170;27.850;2024-03-02T05:12:21;28.35;;;7.95;;
86011;SDS011;76591;42.170;27.850;2024-03-02T05:15:06;33.67;;;8.68;;
86011;SDS011;76591;42.170;27.850;2024-03-02T05:17:32;20.63;;;7.45;;
86011;SDS011;76591;42.170;27.850;2024-03-02T05:19:58;26.95;;;9.80;;
86011;SDS011;76591;42.170;27.850;2024-03-02T05:22:24;31.05;;;10.13;;
86011;SDS011;76591;42.170;27.850;2024-03-02T05:24:49;15.73;;;7.80;;
86011;SDS011;76591;42.170;27.850;2024-03-02T05:27:15;16.02;;;7.30;;
86011;SDS011;76591;42.170;27.850;2024-03-02T05:29:41;17.58;;;5.90;;
86011;SDS011;76591;42.170;27.850;2024-03-02T05:32:06;16.95;;;6.00;;
86011;SDS011;76591;42.170;27.850;2024-03-02T05:34:32;12.93;;;6.13;;
86011;SDS011;76591;42.170;27.850;2024-03-02T05:37:00;20.27;;;7.63;;
86011;SDS011;76591;42.170;27.850;2024-03-02T05:39:26;22.55;;;8.15;;
86011;SDS011;76591;42.170;27.850;2024-03-02T05:41:52;25.90;;;9.65;;
86011;SDS011;76591;42.170;27.850;2024-03-02T05:44:17;26.10;;;9.25;;
86011;SDS011;76591;42.170;27.850;2024-03-02T05:46:45;25.10;;;9.18;;
86011;SDS011;76591;42.170;27.850;2024-03-02T05:49:11;23.65;;;9.00;;
86011;SDS011;76591;42.170;27.850;2024-03-02T05:51:36;26.27;;;12.00;;
86011;SDS011;76591;42.170;27.850;2024-03-02T05:54:02;28.98;;;10.63;;
86011;SDS011;76591;42.170;27.850;2024-03-02T05:56:28;21.40;;;7.63;;
86011;SDS011;76591;42.170;27.850;2024-03-02T05:58:53;34.47;;;12.95;;
86011;SDS011;76591;42.170;27.850;2024-03-02T06:01:46;36.50;;;12.60;;
86011;SDS011;76591;42.170;27.850;2024-03-02T06:04:13;23.67;;;9.93;;
86011;SDS011;76591;42.170;27.850;2024-03-02T06:06:39;29.75;;;12.35;;
86011;SDS011;76591;42.170;27.850;2024-03-02T06:09:05;24.05;;;10.38;;
86011;SDS011;76591;42.170;27.850;2024-03-02T06:11:36;22.73;;;8.32;;
86011;SDS011;76591;42.170;27.850;2024-03-02T06:14:03;30.08;;;9.25;;
86011;SDS011;76591;42.170;27.850;2024-03-02T06:16:32;19.50;;;8.55;;
86011;SDS011;76591;42.170;27.850;2024-03-02T06:18:58;36.13;;;12.90;;
86011;SDS011;76591;42.170;27.850;2024-03-02T06:21:24;33.88;;;11.50;;
86011;SDS011;76591;42.170;27.850;2024-03-02T06:23:50;28.70;;;13.88;;
86011;SDS011;76591;42.170;27.850;2024-03-02T06:26:16;68.97;;;28.17;;
86011;SDS011;76591;42.170;27.850;2024-03-02T06:28:42;55.38;;;24.92;;
86011;SDS011;76591;42.170;27.850;2024-03-02T06:31:08;51.47;;;21.50;;
86011;SDS011;76591;42.170;27.850;2024-03-02T06:33:34;29.67;;;13.57;;
86011;SDS011;76591;42.170;27.850;2024-03-02T06:36:00;44.40;;;13.80;;
86011;SDS011;76591;42.170;27.850;2024-03-02T06:38:25;142.10;;;36.75;;
86011;SDS011;76591;42.170;27.850;2024-03-02T06:40:51;72.15;;;26.92;;
86011;SDS011;76591;42.170;27.850;2024-03-02T06:43:17;40.30;;;18.00;;
86011;SDS011;76591;42.170;27.850;2024-03-02T06:45:42;40.35;;;16.58;;
86011;SDS011;76591;42.170;27.850;2024-03-02T06:48:08;39.03;;;16.42;;
86011;SDS011;76591;42.170;27.850;2024-03-02T06:50:33;32.00;;;16.27;;
86011;SDS011;76591;42.170;27.850;2024-03-02T06:52:59;46.55;;;19.65;;
86011;SDS011;76591;42.170;27.850;2024-03-02T06:55:25;30.27;;;13.35;;
86011;SDS011;76591;42.170;27.850;2024-03-02T06:57:51;13.93;;;7.32;;
86011;SDS011;76591;42.170;27.850;2024-03-02T07:00:17;24.60;;;9.90;;
86011;SDS011;76591;42.170;27.850;2024-03-02T07:02:45;20.33;;;9.70;;
86011;SDS011;76591;42.170;27.850;2024-03-02T07:05:12;19.25;;;9.45;;
86011;SDS011;76591;42.170;27.850;2024-03-02T07:07:38;15.95;;;7.07;;
86011;SDS011;76591;42.170;27.850;2024-03-02T07:10:04;19.65;;;8.52;;
86011;SDS011;76591;42.170;27.850;2024-03-02T07:12:30;38.05;;;11.50;;
86011;SDS011;76591;42.170;27.850;2024-03-02T07:14:56;59.97;;;18.75;;
86011;SDS011;76591;42.170;27.850;2024-03-02T07:17:28;63.58;;;20.23;;
86011;SDS011;76591;42.170;27.850;2024-03-02T07:19:54;24.05;;;11.35;;
86011;SDS011;76591;42.170;27.850;2024-03-02T07:22:20;43.38;;;16.83;;
86011;SDS011;76591;42.170;27.850;2024-03-02T07:24:45;30.40;;;12.48;;
86011;SDS011;76591;42.170;27.850;2024-03-02T07:27:12;35.33;;;13.52;;
86011;SDS011;76591;42.170;27.850;2024-03-02T07:29:38;17.40;;;8.95;;
86011;SDS011;76591;42.170;27.850;2024-03-02T07:32:05;18.08;;;8.18;;
86011;SDS011;76591;42.170;27.850;2024-03-02T07:34:31;27.08;;;11.23;;
86011;SDS011;76591;42.170;27.850;2024-03-02T07:36:57;20.05;;;9.00;;
86011;SDS011;76591;42.170;27.850;2024-03-02T07:39:23;24.77;;;8.25;;
86011;SDS011;76591;42.170;27.850;2024-03-02T07:41:49;19.30;;;7.78;;
86011;SDS011;76591;42.170;27.850;2024-03-02T07:44:15;21.55;;;8.05;;
86011;SDS011;76591;42.170;27.850;2024-03-02T07:46:41;18.30;;;8.27;;
86011;SDS011;76591;42.170;27.850;2024-03-02T07:49:08;17.73;;;8.40;;
86011;SDS011;76591;42.170;27.850;2024-03-02T07:51:34;17.00;;;8.85;;
86011;SDS011;76591;42.170;27.850;2024-03-02T07:54:00;17.02;;;8.45;;
86011;SDS011;76591;42.170;27.850;2024-03-02T07:56:25;22.67;;;8.30;;
86011;SDS011;76591;42.170;27.850;2024-03-02T07:58:51;22.58;;;8.18;;
86011;SDS011;76591;42.170;27.850;2024-03-02T08:01:17;32.97;;;10.68;;
86011;SDS011;76591;42.170;27.850;2024-03-02T08:03:43;36.25;;;12.27;;
86011;SDS011;76591;42.170;27.850;2024-03-02T08:06:18;31.58;;;12.35;;
86011;SDS011;76591;42.170;27.850;2024-03-02T08:08:46;30.42;;;13.95;;
86011;SDS011;76591;42.170;27.850;2024-03-02T08:11:12;32.90;;;13.20;;
86011;SDS011;76591;42.170;27.850;2024-03-02T08:13:38;25.52;;;8.98;;
86011;SDS011;76591;42.170;27.850;2024-03-02T08:16:03;20.88;;;10.40;;
86011;SDS011;76591;42.170;27.850;2024-03-02T08:18:32;28.48;;;13.60;;
86011;SDS011;76591;42.170;27.850;2024-03-02T08:20:58;30.25;;;13.20;;
86011;SDS011;76591;42.170;27.850;2024-03-02T08:23:24;27.80;;;13.63;;
86011;SDS011;76591;42.170;27.850;2024-03-02T08:25:50;27.20;;;12.65;;
86011;SDS011;76591;42.170;27.850;2024-03-02T08:28:16;21.98;;;10.63;;
86011;SDS011;76591;42.170;27.850;2024-03-02T08:30:42;22.08;;;10.45;;
86011;SDS011;76591;42.170;27.850;2024-03-02T08:33:08;22.13;;;10.27;;
86011;SDS011;76591;42.170;27.850;2024-03-02T08:35:33;27.67;;;10.63;;
86011;SDS011;76591;42.170;27.850;2024-03-02T08:38:04;28.63;;;11.57;;
86011;SDS011;76591;42.170;27.850;2024-03-02T08:40:30;25.60;;;10.95;;
86011;SDS011;76591;42.170;27.850;2024-03-02T08:42:56;27.65;;;11.85;;
86011;SDS011;76591;42.170;27.850;2024-03-02T08:45:21;26.10;;;10.75;;
86011;SDS011;76591;42.170;27.850;2024-03-02T08:47:47;23.38;;;9.23;;
86011;SDS011;76591;42.170;27.850;2024-03-02T08:50:13;21.13;;;8.30;;
86011;SDS011;76591;42.170;27.850;2024-03-02T08:52:39;14.43;;;5.70;;
86011;SDS011;76591;42.170;27.850;2024-03-02T08:55:05;16.58;;;8.30;;
86011;SDS011;76591;42.170;27.850;2024-03-02T08:57:32;17.80;;;6.88;;
86011;SDS011;76591;42.170;27.850;2024-03-02T08:59:58;19.55;;;7.55;;
86011;SDS011;76591;42.170;27.850;2024-03-02T09:02:25;15.68;;;6.60;;
86011;SDS011;76591;42.170;27.850;2024-03-02T09:04:50;15.23;;;6.72;;
86011;SDS011;76591;42.170;27.850;2024-03-02T09:07:16;15.07;;;6.22;;
86011;SDS011;76591;42.170;27.850;2024-03-02T09:09:42;9.32;;;5.25;;
86011;SDS011;76591;42.170;27.850;2024-03-02T09:12:08;14.40;;;6.47;;
86011;SDS011;76591;42.170;27.850;2024-03-02T09:14:33;17.02;;;7.03;;
86011;SDS011;76591;42.170;27.850;2024-03-02T09:17:00;23.88;;;8.32;;
86011;SDS011;76591;42.170;27.850;2024-03-02T09:19:26;22.23;;;6.88;;
86011;SDS011;76591;42.170;27.850;2024-03-02T09:21:52;28.63;;;10.27;;
86011;SDS011;76591;42.170;27.850;2024-03-02T09:24:18;20.48;;;9.10;;
86011;SDS011;76591;42.170;27.850;2024-03-02T09:26:43;17.83;;;6.70;;
86011;SDS011;76591;42.170;27.850;2024-03-02T09:29:09;8.25;;;5.05;;
86011;SDS011;76591;42.170;27.850;2024-03-02T09:31:39;16.75;;;6.50;;
86011;SDS011;76591;42.170;27.850;2024-03-02T09:34:08;12.52;;;6.10;;
86011;SDS011;76591;42.170;27.850;2024-03-02T09:36:34;14.90;;;5.30;;
86011;SDS011;76591;42.170;27.850;2024-03-02T09:38:59;17.30;;;5.50;;
86011;SDS011;76591;42.170;27.850;2024-03-02T09:41:25;16.42;;;6.43;;
86011;SDS011;76591;42.170;27.850;2024-03-02T09:43:51;19.92;;;6.20;;
86011;SDS011;76591;42.170;27.850;2024-03-02T09:46:16;19.58;;;7.88;;
86011;SDS011;76591;42.170;27.850;2024-03-02T09:48:46;10.05;;;6.43;;
86011;SDS011;76591;42.170;27.850;2024-03-02T09:51:11;12.27;;;5.60;;
86011;SDS011;76591;42.170;27.850;2024-03-02T09:53:39;12.63;;;4.95;;
86011;SDS011;76591;42.170;27.850;2024-03-02T09:56:05;15.70;;;5.82;;
86011;SDS011;76591;42.170;27.850;2024-03-02T09:58:31;25.15;;;6.75;;
86011;SDS011;76591;42.170;27.850;2024-03-02T10:00:56;11.70;;;6.28;;
86011;SDS011;76591;42.170;27.850;2024-03-02T10:03:25;14.77;;;6.65;;
86011;SDS011;76591;42.170;27.850;2024-03-02T10:05:54;18.35;;;6.70;;
86011;SDS011;76591;42.170;27.850;2024-03-02T10:08:19;16.38;;;6.45;;
86011;SDS011;76591;42.170;27.850;2024-03-02T10:10:45;12.07;;;4.93;;
86011;SDS011;76591;42.170;27.850;2024-03-02T10:13:11;13.73;;;4.32;;
86011;SDS011;76591;42.170;27.850;2024-03-02T10:15:38;8.88;;;4.03;;
86011;SDS011;76591;42.170;27.850;2024-03-02T10:18:08;8.98;;;4.18;;
86011;SDS011;76591;42.170;27.850;2024-03-02T10:20:38;15.23;;;6.13;;
86011;SDS011;76591;42.170;27.850;2024-03-02T10:23:09;11.75;;;5.97;;
86011;SDS011;76591;42.170;27.850;2024-03-02T10:25:36;14.68;;;5.97;;
86011;SDS011;76591;42.170;27.850;2024-03-02T10:28:02;11.73;;;5.05;;
86011;SDS011;76591;42.170;27.850;2024-03-02T10:30:30;10.90;;;4.85;;
86011;SDS011;76591;42.170;27.850;2024-03-02T10:32:56;15.43;;;5.78;;
86011;SDS011;76591;42.170;27.850;2024-03-02T10:35:22;13.95;;;4.68;;
86011;SDS011;76591;42.170;27.850;2024-03-02T10:37:52;14.27;;;5.57;;
86011;SDS011;76591;42.170;27.850;2024-03-02T10:40:18;15.90;;;5.32;;
86011;SDS011;76591;42.170;27.850;2024-03-02T10:42:47;13.52;;;5.32;;
86011;SDS011;76591;42.170;27.850;2024-03-02T10:45:15;12.70;;;5.32;;
86011;SDS011;76591;42.170;27.850;2024-03-02T10:47:42;12.95;;;5.18;;
86011;SDS011;76591;42.170;27.850;2024-03-02T10:50:09;12.82;;;5.78;;
86011;SDS011;76591;42.170;27.850;2024-03-02T10:52:35;11.60;;;5.65;;
86011;SDS011;76591;42.170;27.850;2024-03-02T10:55:02;7.93;;;4.28;;
86011;SDS011;76591;42.170;27.850;2024-03-02T10:57:39;8.93;;;4.32;;
86011;SDS011;76591;42.170;27.850;2024-03-02T11:00:19;10.38;;;4.63;;
86011;SDS011;76591;42.170;27.850;2024-03-02T11:02:56;11.55;;;5.70;;
86011;SDS011;76591;42.170;27.850;2024-03-02T11:05:31;18.88;;;5.55;;
86011;SDS011;76591;42.170;27.850;2024-03-02T11:08:02;13.15;;;4.20;;
86011;SDS011;76591;42.170;27.850;2024-03-02T11:10:34;9.38;;;4.05;;
86011;SDS011;76591;42.170;27.850;2024-03-02T11:13:02;7.57;;;3.97;;
86011;SDS011;76591;42.170;27.850;2024-03-02T11:15:31;19.00;;;5.85;;
86011;SDS011;76591;42.170;27.850;2024-03-02T11:18:00;14.05;;;5.03;;
86011;SDS011;76591;42.170;27.850;2024-03-02T11:20:30;11.77;;;5.70;;
86011;SDS011;76591;42.170;27.850;2024-03-02T11:22:57;15.18;;;5.43;;
86011;SDS011;76591;42.170;27.850;2024-03-02T11:25:23;11.88;;;5.13;;
86011;SDS011;76591;42.170;27.850;2024-03-02T11:32:59;14.10;;;5.97;;
86011;SDS011;76591;42.170;27.850;2024-03-02T11:35:41;17.02;;;6.55;;
86011;SDS011;76591;42.170;27.850;2024-03-02T11:38:13;20.60;;;6.57;;
86011;SDS011;76591;42.170;27.850;2024-03-02T11:40:39;29.90;;;6.97;;
86011;SDS011;76591;42.170;27.850;2024-03-02T11:43:06;21.45;;;6.85;;
86011;SDS011;76591;42.170;27.850;2024-03-02T11:45:35;20.35;;;7.35;;
86011;SDS011;76591;42.170;27.850;2024-03-02T11:48:05;20.98;;;8.18;;
86011;SDS011;76591;42.170;27.850;2024-03-02T11:53:26;19.95;;;7.50;;
86011;SDS011;76591;42.170;27.850;2024-03-02T11:55:57;21.85;;;8.45;;
86011;SDS011;76591;42.170;27.850;2024-03-02T11:58:24;20.17;;;8.55;;
86011;SDS011;76591;42.170;27.850;2024-03-02T12:00:52;23.65;;;8.35;;
86011;SDS011;76591;42.170;27.850;2024-03-02T12:03:22;31.13;;;9.93;;
86011;SDS011;76591;42.170;27.850;2024-03-02T12:05:49;26.65;;;7.97;;
86011;SDS011;76591;42.170;27.850;2024-03-02T12:08:15;15.15;;;5.60;;
86011;SDS011;76591;42.170;27.850;2024-03-02T12:10:41;17.20;;;5.43;;
86011;SDS011;76591;42.170;27.850;2024-03-02T12:13:09;12.32;;;5.78;;
86011;SDS011;76591;42.170;27.850;2024-03-02T12:15:37;14.68;;;5.53;;
86011;SDS011;76591;42.170;27.850;2024-03-02T12:18:04;11.95;;;4.95;;
86011;SDS011;76591;42.170;27.850;2024-03-02T12:20:31;21.73;;;6.43;;
86011;SDS011;76591;42.170;27.850;2024-03-02T12:22:58;50.35;;;17.35;;
86011;SDS011;76591;42.170;27.850;2024-03-02T12:25:25;39.10;;;14.68;;
86011;SDS011;76591;42.170;27.850;2024-03-02T12:27:56;42.35;;;14.38;;
86011;SDS011;76591;42.170;27.850;2024-03-02T12:30:22;21.88;;;9.38;;
86011;SDS011;76591;42.170;27.850;2024-03-02T12:32:49;18.33;;;7.65;;
86011;SDS011;76591;42.170;27.850;2024-03-02T12:35:15;14.52;;;6.70;;
86011;SDS011;76591;42.170;27.850;2024-03-02T12:37:47;22.48;;;8.18;;
86011;SDS011;76591;42.170;27.850;2024-03-02T12:40:15;25.17;;;9.55;;
86011;SDS011;76591;42.170;27.850;2024-03-02T12:42:46;20.63;;;6.93;;
86011;SDS011;76591;42.170;27.850;2024-03-02T12:45:15;24.13;;;8.48;;
86011;SDS011;76591;42.170;27.850;2024-03-02T12:47:42;27.02;;;7.18;;
86011;SDS011;76591;42.170;27.850;2024-03-02T12:50:08;21.60;;;6.88;;
86011;SDS011;76591;42.170;27.850;2024-03-02T12:52:35;13.27;;;6.28;;
86011;SDS011;76591;42.170;27.850;2024-03-02T12:55:01;15.30;;;6.03;;
86011;SDS011;76591;42.170;27.850;2024-03-02T12:57:31;20.95;;;7.13;;
86011;SDS011;76591;42.170;27.850;2024-03-02T13:00:05;14.15;;;5.55;;
86011;SDS011;76591;42.170;27.850;2024-03-02T13:02:41;11.45;;;4.55;;
86011;SDS011;76591;42.170;27.850;2024-03-02T13:05:08;11.60;;;4.50;;
86011;SDS011;76591;42.170;27.850;2024-03-02T13:07:37;17.80;;;5.15;;
86011;SDS011;76591;42.170;27.850;2024-03-02T13:10:03;15.23;;;5.85;;
86011;SDS011;76591;42.170;27.850;2024-03-02T13:12:30;12.05;;;4.72;;
86011;SDS011;76591;42.170;27.850;2024-03-02T13:14:57;10.32;;;4.95;;
86011;SDS011;76591;42.170;27.850;2024-03-02T13:17:24;12.60;;;5.72;;
86011;SDS011;76591;42.170;27.850;2024-03-02T13:22:19;8.85;;;4.53;;
86011;SDS011;76591;42.170;27.850;2024-03-02T13:24:45;16.95;;;4.85;;
86011;SDS011;76591;42.170;27.850;2024-03-02T13:27:10;13.18;;;5.43;;
86011;SDS011;76591;42.170;27.850;2024-03-02T13:29:36;17.58;;;6.32;;
86011;SDS011;76591;42.170;27.850;2024-03-02T13:32:02;13.55;;;4.93;;
86011;SDS011;76591;42.170;27.850;2024-03-02T13:34:29;16.67;;;5.45;;
86011;SDS011;76591;42.170;27.850;2024-03-02T13:36:54;16.88;;;6.53;;
86011;SDS011;76591;42.170;27.850;2024-03-02T13:39:20;15.85;;;5.75;;
86011;SDS011;76591;42.170;27.850;2024-03-02T13:41:45;15.02;;;6.13;;
86011;SDS011;76591;42.170;27.850;2024-03-02T13:44:18;12.00;;;5.45;;
86011;SDS011;76591;42.170;27.850;2024-03-02T13:46:44;19.98;;;5.78;;
86011;SDS011;76591;42.170;27.850;2024-03-02T13:49:11;10.38;;;4.13;;
86011;SDS011;76591;42.170;27.850;2024-03-02T13:51:37;7.35;;;4.63;;
86011;SDS011;76591;42.170;27.850;2024-03-02T13:54:03;9.18;;;4.93;;
86011;SDS011;76591;42.170;27.850;2024-03-02T13:56:29;18.48;;;7.13;;
86011;SDS011;76591;42.170;27.850;2024-03-02T13:58:55;14.98;;;5.80;;
86011;SDS011;76591;42.170;27.850;2024-03-02T14:01:21;19.27;;;7.70;;
86011;SDS011;76591;42.170;27.850;2024-03-02T14:03:47;14.15;;;7.05;;
86011;SDS011;76591;42.170;27.850;2024-03-02T14:06:12;9.27;;;5.18;;
86011;SDS011;76591;42.170;27.850;2024-03-02T14:08:38;14.95;;;5.85;;
86011;SDS011;76591;42.170;27.850;2024-03-02T14:11:04;17.05;;;6.68;;
86011;SDS011;76591;42.170;27.850;2024-03-02T14:13:30;13.98;;;7.15;;
86011;SDS011;76591;42.170;27.850;2024-03-02T14:15:56;14.98;;;7.70;;
86011;SDS011;76591;42.170;27.850;2024-03-02T14:18:23;16.90;;;6.90;;
86011;SDS011;76591;42.170;27.850;2024-03-02T14:20:48;21.25;;;8.05;;
86011;SDS011;76591;42.170;27.850;2024-03-02T14:23:18;16.15;;;7.82;;
86011;SDS011;76591;42.170;27.850;2024-03-02T14:25:44;16.85;;;6.43;;
86011;SDS011;76591;42.170;27.850;2024-03-02T14:28:10;13.02;;;5.57;;
86011;SDS011;76591;42.170;27.850;2024-03-02T14:30:37;17.88;;;5.70;;